sensor_id;sensor_type;location;lat;lon;timestamp;P1;durP1;ratioP1;P2;durP2;ratioP2
55015;SDS011;40919;43.236;21.590;2023-05-10T00:00:26;8.52;;;5.35;;
55015;SDS011;40919;43.236;21.590;2023-05-10T00:02:52;9.00;;;5.60;;
55015;SDS011;40919;43.236;21.590;2023-05-10T00:05:18;7.28;;;4.97;;
55015;SDS011;40919;43.236;21.590;2023-05-10T00:07:44;7.95;;;5.63;;
55015;SDS011;40919;43.236;21.590;2023-05-10T00:10:10;6.28;;;5.00;;
55015;SDS011;40919;43.236;21.590;2023-05-10T00:12:36;7.45;;;5.18;;
55015;SDS011;40919;43.236;21.590;2023-05-10T00:15:02;7.10;;;5.15;;
55015;SDS011;40919;43.236;21.590;2023-05-10T00:17:28;6.82;;;4.18;;
55015;SDS011;40919;43.236;21.590;2023-05-10T00:19:54;5.63;;;4.28;;
55015;SDS011;40919;43.236;21.590;2023-05-10T00:22:20;7.13;;;4.53;;
55015;SDS011;40919;43.236;21.590;2023-05-10T00:24:46;8.07;;;5.30;;
55015;SDS011;40919;43.236;21.590;2023-05-10T00:27:12;9.00;;;5.55;;
55015;SDS011;40919;43.236;21.590;2023-05-10T00:29:38;6.50;;;5.10;;
55015;SDS011;40919;43.236;21.590;2023-05-10T00:32:04;6.78;;;4.55;;
55015;SDS011;40919;43.236;21.590;2023-05-10T00:34:29;8.45;;;4.95;;
55015;SDS011;40919;43.236;21.590;2023-05-10T00:36:55;6.93;;;4.55;;
55015;SDS011;40919;43.236;21.590;2023-05-10T00:39:21;6.78;;;5.00;;
55015;SDS011;40919;43.236;21.590;2023-05-10T00:41:47;7.68;;;5.63;;
55015;SDS011;40919;43.236;21.590;2023-05-10T00:44:13;8.15;;;5.35;;
55015;SDS011;40919;43.236;21.590;2023-05-10T00:46:38;7.38;;;5.00;;
55015;SDS011;40919;43.236;21.590;2023-05-10T00:49:05;6.78;;;5.07;;
55015;SDS011;40919;43.236;21.590;2023-05-10T00:51:31;7.78;;;5.72;;
55015;SDS011;40919;43.236;21.590;2023-05-10T00:53:57;6.78;;;5.13;;
55015;SDS011;40919;43.236;21.590;2023-05-10T00:56:24;9.70;;;5.70;;
55015;SDS011;40919;43.236;21.590;2023-05-10T00:58:51;8.15;;;5.50;;
55015;SDS011;40919;43.236;21.590;2023-05-10T01:01:17;8.13;;;5.53;;
55015;SDS011;40919;43.236;21.590;2023-05-10T01:03:44;6.78;;;4.75;;
55015;SDS011;40919;43.236;21.590;2023-05-10T01:06:12;10.07;;;6.28;;
55015;SDS011;40919;43.236;21.590;2023-05-10T01:08:38;8.38;;;5.88;;
55015;SDS011;40919;43.236;21.590;2023-05-10T01:11:05;7.80;;;5.32;;
55015;SDS011;40919;43.236;21.590;2023-05-10T01:15:59;8.02;;;5.43;;
55015;SDS011;40919;43.236;21.590;2023-05-10T01:18:27;7.07;;;5.00;;
55015;SDS011;40919;43.236;21.590;2023-05-10T01:34:17;10.38;;;5.57;;
55015;SDS011;40919;43.236;21.590;2023-05-10T01:37:52;7.50;;;4.95;;
55015;SDS011;40919;43.236;21.590;2023-05-10T01:39:52;6.97;;;4.88;;
55015;SDS011;40919;43.236;21.590;2023-05-10T01:42:25;8.73;;;5.05;;
55015;SDS011;40919;43.236;21.590;2023-05-10T01:45:22;9.93;;;7.00;;
55015;SDS011;40919;43.236;21.590;2023-05-10T01:48:16;6.97;;;4.97;;
55015;SDS011;40919;43.236;21.590;2023-05-10T01:50:44;7.10;;;4.70;;
55015;SDS011;40919;43.236;21.590;2023-05-10T01:53:11;12.68;;;5.13;;
55015;SDS011;40919;43.236;21.590;2023-05-10T01:55:43;11.13;;;7.78;;
55015;SDS011;40919;43.236;21.590;2023-05-10T01:58:16;7.15;;;5.53;;
55015;SDS011;40919;43.236;21.590;2023-05-10T02:00:49;7.40;;;5.10;;
55015;SDS011;40919;43.236;21.590;2023-05-10T02:03:17;7.55;;;6.07;;
55015;SDS011;40919;43.236;21.590;2023-05-10T02:05:46;7.57;;;6.15;;
55015;SDS011;40919;43.236;21.590;2023-05-10T02:08:14;7.97;;;5.10;;
55015;SDS011;40919;43.236;21.590;2023-05-10T02:10:42;6.60;;;5.30;;
55015;SDS011;40919;43.236;21.590;2023-05-10T02:13:09;5.93;;;4.25;;
55015;SDS011;40919;43.236;21.590;2023-05-10T02:15:37;6.32;;;4.28;;
55015;SDS011;40919;43.236;21.590;2023-05-10T02:18:05;5.15;;;3.92;;
55015;SDS011;40919;43.236;21.590;2023-05-10T02:20:32;5.93;;;4.43;;
55015;SDS011;40919;43.236;21.590;2023-05-10T02:23:00;5.63;;;4.13;;
55015;SDS011;40919;43.236;21.590;2023-05-10T02:25:28;7.22;;;5.38;;
55015;SDS011;40919;43.236;21.590;2023-05-10T02:27:55;6.32;;;4.80;;
55015;SDS011;40919;43.236;21.590;2023-05-10T02:30:23;6.85;;;5.13;;
55015;SDS011;40919;43.236;21.590;2023-05-10T02:32:50;6.70;;;4.57;;
55015;SDS011;40919;43.236;21.590;2023-05-10T02:35:17;6.78;;;4.72;;
55015;SDS011;40919;43.236;21.590;2023-05-10T02:37:43;6.90;;;4.63;;
55015;SDS011;40919;43.236;21.590;2023-05-10T02:40:11;5.97;;;4.18;;
55015;SDS011;40919;43.236;21.590;2023-05-10T02:42:40;5.28;;;4.07;;
55015;SDS011;40919;43.236;21.590;2023-05-10T02:45:11;5.63;;;4.10;;
55015;SDS011;40919;43.236;21.590;2023-05-10T02:47:40;5.63;;;4.15;;
55015;SDS011;40919;43.236;21.590;2023-05-10T02:50:06;5.50;;;4.05;;
55015;SDS011;40919;43.236;21.590;2023-05-10T02:52:40;6.03;;;4.13;;
55015;SDS011;40919;43.236;21.590;2023-05-10T02:55:11;6.20;;;4.30;;
55015;SDS011;40919;43.236;21.590;2023-05-10T02:57:46;6.85;;;4.55;;
55015;SDS011;40919;43.236;21.590;2023-05-10T03:00:17;6.53;;;4.18;;
55015;SDS011;40919;43.236;21.590;2023-05-10T03:02:43;6.63;;;4.57;;
55015;SDS011;40919;43.236;21.590;2023-05-10T03:05:09;6.78;;;4.65;;
55015;SDS011;40919;43.236;21.590;2023-05-10T03:07:34;7.35;;;4.88;;
55015;SDS011;40919;43.236;21.590;2023-05-10T03:10:01;6.63;;;4.82;;
55015;SDS011;40919;43.236;21.590;2023-05-10T03:12:31;6.00;;;4.38;;
55015;SDS011;40919;43.236;21.590;2023-05-10T03:15:25;6.55;;;4.55;;
55015;SDS011;40919;43.236;21.590;2023-05-10T03:18:05;8.75;;;5.28;;
55015;SDS011;40919;43.236;21.590;2023-05-10T03:23:20;8.45;;;5.25;;
55015;SDS011;40919;43.236;21.590;2023-05-10T03:25:48;10.50;;;5.05;;
55015;SDS011;40919;43.236;21.590;2023-05-10T03:28:15;7.55;;;4.90;;
55015;SDS011;40919;43.236;21.590;2023-05-10T03:30:42;8.85;;;4.90;;
55015;SDS011;40919;43.236;21.590;2023-05-10T03:33:09;6.93;;;4.75;;
55015;SDS011;40919;43.236;21.590;2023-05-10T03:35:35;6.80;;;4.78;;
55015;SDS011;40919;43.236;21.590;2023-05-10T03:38:01;9.70;;;6.82;;
55015;SDS011;40919;43.236;21.590;2023-05-10T03:40:27;8.32;;;5.82;;
55015;SDS011;40919;43.236;21.590;2023-05-10T03:42:56;9.43;;;6.63;;
55015;SDS011;40919;43.236;21.590;2023-05-10T03:45:22;9.45;;;6.28;;
55015;SDS011;40919;43.236;21.590;2023-05-10T03:47:48;7.60;;;5.68;;
55015;SDS011;40919;43.236;21.590;2023-05-10T03:50:14;8.20;;;5.78;;
55015;SDS011;40919;43.236;21.590;2023-05-10T03:52:40;8.63;;;6.03;;
55015;SDS011;40919;43.236;21.590;2023-05-10T03:55:06;10.93;;;6.97;;
55015;SDS011;40919;43.236;21.590;2023-05-10T03:57:33;11.82;;;6.93;;
55015;SDS011;40919;43.236;21.590;2023-05-10T03:59:59;10.73;;;5.78;;
55015;SDS011;40919;43.236;21.590;2023-05-10T04:02:25;7.40;;;5.32;;
55015;SDS011;40919;43.236;21.590;2023-05-10T04:04:51;7.72;;;5.28;;
55015;SDS011;40919;43.236;21.590;2023-05-10T04:07:17;8.15;;;5.25;;
55015;SDS011;40919;43.236;21.590;2023-05-10T04:09:43;7.65;;;5.00;;
55015;SDS011;40919;43.236;21.590;2023-05-10T04:12:09;8.07;;;6.03;;
55015;SDS011;40919;43.236;21.590;2023-05-10T04:14:34;8.20;;;5.72;;
55015;SDS011;40919;43.236;21.590;2023-05-10T04:17:00;8.43;;;6.57;;
55015;SDS011;40919;43.236;21.590;2023-05-10T04:19:30;10.13;;;6.60;;
55015;SDS011;40919;43.236;21.590;2023-05-10T04:21:56;11.05;;;6.57;;
55015;SDS011;40919;43.236;21.590;2023-05-10T04:24:22;8.32;;;5.30;;
55015;SDS011;40919;43.236;21.590;2023-05-10T04:26:48;8.98;;;5.72;;
55015;SDS011;40919;43.236;21.590;2023-05-10T04:29:14;8.13;;;6.32;;
55015;SDS011;40919;43.236;21.590;2023-05-10T04:31:40;8.52;;;5.35;;
55015;SDS011;40919;43.236;21.590;2023-05-10T04:34:06;8.20;;;6.55;;
55015;SDS011;40919;43.236;21.590;2023-05-10T04:36:31;7.15;;;5.53;;
55015;SDS011;40919;43.236;21.590;2023-05-10T04:38:59;7.53;;;6.20;;
55015;SDS011;40919;43.236;21.590;2023-05-10T04:41:25;8.95;;;7.55;;
55015;SDS011;40919;43.236;21.590;2023-05-10T04:43:51;13.25;;;7.15;;
55015;SDS011;40919;43.236;21.590;2023-05-10T04:46:17;10.52;;;7.50;;
55015;SDS011;40919;43.236;21.590;2023-05-10T04:48:43;7.78;;;5.80;;
55015;SDS011;40919;43.236;21.590;2023-05-10T04:51:09;6.93;;;5.18;;
55015;SDS011;40919;43.236;21.590;2023-05-10T04:53:35;8.77;;;6.82;;
55015;SDS011;40919;43.236;21.590;2023-05-10T04:56:01;9.93;;;6.53;;
55015;SDS011;40919;43.236;21.590;2023-05-10T04:58:26;10.23;;;7.03;;
55015;SDS011;40919;43.236;21.590;2023-05-10T05:00:52;13.07;;;7.20;;
55015;SDS011;40919;43.236;21.590;2023-05-10T05:03:18;11.25;;;6.63;;
55015;SDS011;40919;43.236;21.590;2023-05-10T05:05:44;9.82;;;6.00;;
55015;SDS011;40919;43.236;21.590;2023-05-10T05:08:10;8.50;;;5.57;;
55015;SDS011;40919;43.236;21.590;2023-05-10T05:10:35;11.93;;;6.53;;
55015;SDS011;40919;43.236;21.590;2023-05-10T05:13:01;7.78;;;5.93;;
55015;SDS011;40919;43.236;21.590;2023-05-10T05:15:27;8.50;;;6.70;;
55015;SDS011;40919;43.236;21.590;2023-05-10T05:17:53;8.50;;;6.03;;
55015;SDS011;40919;43.236;21.590;2023-05-10T05:20:19;7.90;;;5.25;;
55015;SDS011;40919;43.236;21.590;2023-05-10T05:22:45;9.07;;;4.80;;
55015;SDS011;40919;43.236;21.590;2023-05-10T05:25:10;7.30;;;4.43;;
55015;SDS011;40919;43.236;21.590;2023-05-10T05:27:36;11.27;;;5.10;;
55015;SDS011;40919;43.236;21.590;2023-05-10T05:30:02;10.55;;;6.90;;
55015;SDS011;40919;43.236;21.590;2023-05-10T05:32:29;7.97;;;5.75;;
55015;SDS011;40919;43.236;21.590;2023-05-10T05:34:55;7.57;;;5.28;;
55015;SDS011;40919;43.236;21.590;2023-05-10T05:37:21;6.97;;;4.82;;
55015;SDS011;40919;43.236;21.590;2023-05-10T05:39:47;9.75;;;6.38;;
55015;SDS011;40919;43.236;21.590;2023-05-10T05:42:13;9.70;;;6.88;;
55015;SDS011;40919;43.236;21.590;2023-05-10T05:44:41;7.40;;;5.13;;
55015;SDS011;40919;43.236;21.590;2023-05-10T05:47:07;8.40;;;6.32;;
55015;SDS011;40919;43.236;21.590;2023-05-10T05:49:33;11.20;;;8.05;;
55015;SDS011;40919;43.236;21.590;2023-05-10T05:51:59;9.35;;;6.40;;
55015;SDS011;40919;43.236;21.590;2023-05-10T05:54:26;8.55;;;6.07;;
55015;SDS011;40919;43.236;21.590;2023-05-10T05:56:55;14.85;;;7.22;;
55015;SDS011;40919;43.236;21.590;2023-05-10T05:59:22;11.40;;;7.47;;
55015;SDS011;40919;43.236;21.590;2023-05-10T06:01:48;8.98;;;6.68;;
55015;SDS011;40919;43.236;21.590;2023-05-10T06:04:14;8.50;;;6.15;;
55015;SDS011;40919;43.236;21.590;2023-05-10T06:06:40;8.90;;;6.38;;
55015;SDS011;40919;43.236;21.590;2023-05-10T06:09:06;7.75;;;6.20;;
55015;SDS011;40919;43.236;21.590;2023-05-10T06:11:32;10.52;;;7.47;;
55015;SDS011;40919;43.236;21.590;2023-05-10T06:13:58;10.82;;;7.20;;
55015;SDS011;40919;43.236;21.590;2023-05-10T06:16:24;9.10;;;6.80;;
55015;SDS011;40919;43.236;21.590;2023-05-10T06:18:50;9.55;;;6.35;;
55015;SDS011;40919;43.236;21.590;2023-05-10T06:21:16;10.70;;;8.60;;
55015;SDS011;40919;43.236;21.590;2023-05-10T06:23:41;11.45;;;9.75;;
55015;SDS011;40919;43.236;21.590;2023-05-10T06:26:07;14.15;;;8.70;;
55015;SDS011;40919;43.236;21.590;2023-05-10T06:28:33;8.35;;;7.18;;
55015;SDS011;40919;43.236;21.590;2023-05-10T06:30:59;12.80;;;8.68;;
55015;SDS011;40919;43.236;21.590;2023-05-10T06:33:25;15.02;;;8.73;;
55015;SDS011;40919;43.236;21.590;2023-05-10T06:35:51;12.82;;;8.98;;
55015;SDS011;40919;43.236;21.590;2023-05-10T06:38:17;20.17;;;11.80;;
55015;SDS011;40919;43.236;21.590;2023-05-10T06:40:43;21.17;;;13.20;;
55015;SDS011;40919;43.236;21.590;2023-05-10T06:43:10;12.63;;;8.07;;
55015;SDS011;40919;43.236;21.590;2023-05-10T06:45:36;16.77;;;9.80;;
55015;SDS011;40919;43.236;21.590;2023-05-10T06:48:02;15.43;;;9.77;;
55015;SDS011;40919;43.236;21.590;2023-05-10T06:50:28;12.75;;;8.55;;
55015;SDS011;40919;43.236;21.590;2023-05-10T06:52:54;13.73;;;8.40;;
55015;SDS011;40919;43.236;21.590;2023-05-10T06:55:20;9.23;;;6.43;;
55015;SDS011;40919;43.236;21.590;2023-05-10T06:57:46;8.25;;;6.53;;
55015;SDS011;40919;43.236;21.590;2023-05-10T07:00:13;7.55;;;6.30;;
55015;SDS011;40919;43.236;21.590;2023-05-10T07:02:39;10.18;;;6.72;;
55015;SDS011;40919;43.236;21.590;2023-05-10T07:05:05;11.25;;;8.73;;
55015;SDS011;40919;43.236;21.590;2023-05-10T07:07:31;12.48;;;8.38;;
55015;SDS011;40919;43.236;21.590;2023-05-10T07:09:57;11.60;;;9.35;;
55015;SDS011;40919;43.236;21.590;2023-05-10T07:12:23;15.80;;;10.50;;
55015;SDS011;40919;43.236;21.590;2023-05-10T07:14:49;15.68;;;10.52;;
55015;SDS011;40919;43.236;21.590;2023-05-10T07:17:15;12.57;;;8.00;;
55015;SDS011;40919;43.236;21.590;2023-05-10T07:19:41;8.73;;;5.60;;
55015;SDS011;40919;43.236;21.590;2023-05-10T07:22:07;9.52;;;7.75;;
55015;SDS011;40919;43.236;21.590;2023-05-10T07:24:33;11.52;;;8.90;;
55015;SDS011;40919;43.236;21.590;2023-05-10T07:26:59;14.48;;;9.82;;
55015;SDS011;40919;43.236;21.590;2023-05-10T07:29:25;11.65;;;8.00;;
55015;SDS011;40919;43.236;21.590;2023-05-10T07:31:50;9.07;;;5.70;;
55015;SDS011;40919;43.236;21.590;2023-05-10T07:34:16;10.75;;;6.13;;
55015;SDS011;40919;43.236;21.590;2023-05-10T07:36:42;9.55;;;5.95;;
55015;SDS011;40919;43.236;21.590;2023-05-10T07:39:08;8.63;;;6.05;;
55015;SDS011;40919;43.236;21.590;2023-05-10T07:41:34;13.65;;;7.95;;
55015;SDS011;40919;43.236;21.590;2023-05-10T07:44:01;13.70;;;7.55;;
55015;SDS011;40919;43.236;21.590;2023-05-10T07:46:27;10.13;;;6.95;;
55015;SDS011;40919;43.236;21.590;2023-05-10T07:48:53;15.00;;;11.05;;
55015;SDS011;40919;43.236;21.590;2023-05-10T07:51:19;17.35;;;8.77;;
55015;SDS011;40919;43.236;21.590;2023-05-10T07:53:45;9.88;;;6.65;;
55015;SDS011;40919;43.236;21.590;2023-05-10T07:56:27;13.02;;;8.35;;
55015;SDS011;40919;43.236;21.590;2023-05-10T07:58:55;13.02;;;9.35;;
55015;SDS011;40919;43.236;21.590;2023-05-10T08:01:21;16.67;;;11.63;;
55015;SDS011;40919;43.236;21.590;2023-05-10T08:03:48;18.27;;;11.25;;
55015;SDS011;40919;43.236;21.590;2023-05-10T08:06:14;13.80;;;9.40;;
55015;SDS011;40919;43.236;21.590;2023-05-10T08:08:41;14.30;;;8.55;;
55015;SDS011;40919;43.236;21.590;2023-05-10T08:11:07;17.17;;;11.85;;
55015;SDS011;40919;43.236;21.590;2023-05-10T08:13:33;15.85;;;10.10;;
55015;SDS011;40919;43.236;21.590;2023-05-10T08:15:59;14.18;;;9.23;;
55015;SDS011;40919;43.236;21.590;2023-05-10T08:18:25;14.73;;;10.38;;
55015;SDS011;40919;43.236;21.590;2023-05-10T08:20:51;18.20;;;11.05;;
55015;SDS011;40919;43.236;21.590;2023-05-10T08:23:17;23.25;;;17.02;;
55015;SDS011;40919;43.236;21.590;2023-05-10T08:25:43;27.05;;;16.35;;
55015;SDS011;40919;43.236;21.590;2023-05-10T08:28:08;20.23;;;14.65;;
55015;SDS011;40919;43.236;21.590;2023-05-10T08:30:34;22.45;;;14.80;;
55015;SDS011;40919;43.236;21.590;2023-05-10T08:33:00;16.70;;;12.65;;
55015;SDS011;40919;43.236;21.590;2023-05-10T08:35:26;16.45;;;11.45;;
55015;SDS011;40919;43.236;21.590;2023-05-10T08:37:52;17.48;;;9.15;;
55015;SDS011;40919;43.236;21.590;2023-05-10T08:40:18;17.02;;;10.27;;
55015;SDS011;40919;43.236;21.590;2023-05-10T08:42:51;20.02;;;13.02;;
55015;SDS011;40919;43.236;21.590;2023-05-10T08:45:33;19.65;;;13.82;;
55015;SDS011;40919;43.236;21.590;2023-05-10T08:48:02;27.35;;;16.58;;
55015;SDS011;40919;43.236;21.590;2023-05-10T08:50:31;18.10;;;12.35;;
55015;SDS011;40919;43.236;21.590;2023-05-10T08:53:00;14.73;;;10.25;;
55015;SDS011;40919;43.236;21.590;2023-05-10T08:55:29;17.35;;;10.75;;
55015;SDS011;40919;43.236;21.590;2023-05-10T08:57:57;12.45;;;9.20;;
55015;SDS011;40919;43.236;21.590;2023-05-10T09:00:24;11.15;;;8.73;;
55015;SDS011;40919;43.236;21.590;2023-05-10T09:02:51;14.88;;;8.50;;
55015;SDS011;40919;43.236;21.590;2023-05-10T09:05:17;20.25;;;14.63;;
55015;SDS011;40919;43.236;21.590;2023-05-10T09:07:43;22.33;;;12.55;;
55015;SDS011;40919;43.236;21.590;2023-05-10T09:10:09;21.75;;;13.15;;
55015;SDS011;40919;43.236;21.590;2023-05-10T09:12:36;15.38;;;9.60;;
55015;SDS011;40919;43.236;21.590;2023-05-10T09:15:03;17.55;;;11.15;;
55015;SDS011;40919;43.236;21.590;2023-05-10T09:17:30;17.80;;;12.80;;
55015;SDS011;40919;43.236;21.590;2023-05-10T09:19:59;15.20;;;9.23;;
55015;SDS011;40919;43.236;21.590;2023-05-10T09:22:26;11.23;;;8.25;;
55015;SDS011;40919;43.236;21.590;2023-05-10T09:25:05;16.75;;;12.98;;
55015;SDS011;40919;43.236;21.590;2023-05-10T09:27:40;15.80;;;13.07;;
55015;SDS011;40919;43.236;21.590;2023-05-10T09:30:10;15.15;;;9.93;;
55015;SDS011;40919;43.236;21.590;2023-05-10T09:32:41;35.97;;;27.17;;
55015;SDS011;40919;43.236;21.590;2023-05-10T09:35:15;43.33;;;32.42;;
55015;SDS011;40919;43.236;21.590;2023-05-10T09:37:43;49.38;;;38.95;;
55015;SDS011;40919;43.236;21.590;2023-05-10T09:40:17;28.83;;;24.13;;
55015;SDS011;40919;43.236;21.590;2023-05-10T09:42:52;19.15;;;15.52;;
55015;SDS011;40919;43.236;21.590;2023-05-10T09:45:23;14.95;;;11.43;;
55015;SDS011;40919;43.236;21.590;2023-05-10T09:47:51;20.88;;;14.07;;
55015;SDS011;40919;43.236;21.590;2023-05-10T09:50:17;20.13;;;11.68;;
55015;SDS011;40919;43.236;21.590;2023-05-10T09:52:49;18.40;;;13.15;;
55015;SDS011;40919;43.236;21.590;2023-05-10T09:55:17;12.13;;;8.68;;
55015;SDS011;40919;43.236;21.590;2023-05-10T09:57:45;18.52;;;11.75;;
55015;SDS011;40919;43.236;21.590;2023-05-10T10:00:18;20.35;;;13.02;;
55015;SDS011;40919;43.236;21.590;2023-05-10T10:02:45;12.57;;;10.18;;
55015;SDS011;40919;43.236;21.590;2023-05-10T10:05:13;12.50;;;9.55;;
55015;SDS011;40919;43.236;21.590;2023-05-10T10:07:39;9.90;;;7.45;;
55015;SDS011;40919;43.236;21.590;2023-05-10T10:10:06;13.63;;;8.35;;
55015;SDS011;40919;43.236;21.590;2023-05-10T10:12:36;9.77;;;7.45;;
55015;SDS011;40919;43.236;21.590;2023-05-10T10:15:02;15.02;;;8.88;;
55015;SDS011;40919;43.236;21.590;2023-05-10T10:20:01;14.55;;;8.88;;
55015;SDS011;40919;43.236;21.590;2023-05-10T10:22:28;12.73;;;10.10;;
55015;SDS011;40919;43.236;21.590;2023-05-10T10:24:54;11.88;;;9.13;;
55015;SDS011;40919;43.236;21.590;2023-05-10T10:27:24;12.32;;;8.88;;
55015;SDS011;40919;43.236;21.590;2023-05-10T10:33:24;13.52;;;9.10;;
55015;SDS011;40919;43.236;21.590;2023-05-10T10:36:22;12.63;;;9.10;;
55015;SDS011;40919;43.236;21.590;2023-05-10T10:57:45;10.90;;;7.30;;
55015;SDS011;40919;43.236;21.590;2023-05-10T11:03:05;14.13;;;7.93;;
55015;SDS011;40919;43.236;21.590;2023-05-10T11:08:18;13.18;;;8.75;;
55015;SDS011;40919;43.236;21.590;2023-05-10T11:11:02;16.67;;;12.57;;
55015;SDS011;40919;43.236;21.590;2023-05-10T11:13:37;18.42;;;9.48;;
55015;SDS011;40919;43.236;21.590;2023-05-10T11:16:16;16.27;;;11.03;;
55015;SDS011;40919;43.236;21.590;2023-05-10T11:18:52;13.48;;;9.10;;
55015;SDS011;40919;43.236;21.590;2023-05-10T11:21:22;9.40;;;6.95;;
55015;SDS011;40919;43.236;21.590;2023-05-10T11:23:52;11.25;;;6.45;;
55015;SDS011;40919;43.236;21.590;2023-05-10T11:26:26;11.65;;;7.60;;
55015;SDS011;40919;43.236;21.590;2023-05-10T11:28:57;12.02;;;8.60;;
55015;SDS011;40919;43.236;21.590;2023-05-10T11:31:27;14.43;;;6.75;;
55015;SDS011;40919;43.236;21.590;2023-05-10T11:33:54;9.57;;;6.55;;
55015;SDS011;40919;43.236;21.590;2023-05-10T11:36:25;12.70;;;9.73;;
55015;SDS011;40919;43.236;21.590;2023-05-10T11:38:53;9.75;;;8.10;;
55015;SDS011;40919;43.236;21.590;2023-05-10T11:41:20;13.57;;;8.32;;
55015;SDS011;40919;43.236;21.590;2023-05-10T11:43:47;16.30;;;12.18;;
55015;SDS011;40919;43.236;21.590;2023-05-10T11:46:16;14.38;;;10.60;;
55015;SDS011;40919;43.236;21.590;2023-05-10T11:48:44;7.90;;;6.68;;
55015;SDS011;40919;43.236;21.590;2023-05-10T11:51:10;12.30;;;10.30;;
55015;SDS011;40919;43.236;21.590;2023-05-10T11:53:36;14.80;;;10.27;;
55015;SDS011;40919;43.236;21.590;2023-05-10T11:56:09;14.23;;;9.75;;
55015;SDS011;40919;43.236;21.590;2023-05-10T11:58:36;11.90;;;7.95;;
55015;SDS011;40919;43.236;21.590;2023-05-10T12:01:03;13.82;;;8.65;;
55015;SDS011;40919;43.236;21.590;2023-05-10T12:03:30;11.05;;;7.57;;
55015;SDS011;40919;43.236;21.590;2023-05-10T12:05:56;10.05;;;6.80;;
55015;SDS011;40919;43.236;21.590;2023-05-10T12:08:24;9.38;;;7.13;;
55015;SDS011;40919;43.236;21.590;2023-05-10T12:10:51;10.55;;;7.70;;
55015;SDS011;40919;43.236;21.590;2023-05-10T12:13:19;10.48;;;7.85;;
55015;SDS011;40919;43.236;21.590;2023-05-10T12:15:46;13.90;;;8.57;;
55015;SDS011;40919;43.236;21.590;2023-05-10T12:18:12;9.30;;;6.82;;
55015;SDS011;40919;43.236;21.590;2023-05-10T12:20:39;9.40;;;6.28;;
55015;SDS011;40919;43.236;21.590;2023-05-10T12:23:07;11.55;;;7.40;;
55015;SDS011;40919;43.236;21.590;2023-05-10T12:25:34;8.75;;;6.22;;
55015;SDS011;40919;43.236;21.590;2023-05-10T12:28:05;7.63;;;5.55;;
55015;SDS011;40919;43.236;21.590;2023-05-10T12:30:33;6.78;;;5.32;;
55015;SDS011;40919;43.236;21.590;2023-05-10T12:33:10;8.20;;;5.82;;
55015;SDS011;40919;43.236;21.590;2023-05-10T12:35:45;8.20;;;6.00;;
55015;SDS011;40919;43.236;21.590;2023-05-10T12:38:27;11.55;;;7.90;;
55015;SDS011;40919;43.236;21.590;2023-05-10T12:41:23;11.32;;;7.28;;
55015;SDS011;40919;43.236;21.590;2023-05-10T12:43:50;8.32;;;6.38;;
55015;SDS011;40919;43.236;21.590;2023-05-10T12:46:16;9.07;;;6.75;;
55015;SDS011;40919;43.236;21.590;2023-05-10T12:48:43;10.73;;;8.35;;
55015;SDS011;40919;43.236;21.590;2023-05-10T12:51:11;10.40;;;7.28;;
55015;SDS011;40919;43.236;21.590;2023-05-10T12:53:38;13.05;;;6.55;;
55015;SDS011;40919;43.236;21.590;2023-05-10T12:56:05;10.90;;;7.07;;
55015;SDS011;40919;43.236;21.590;2023-05-10T12:58:31;11.65;;;9.13;;
55015;SDS011;40919;43.236;21.590;2023-05-10T13:00:57;13.23;;;8.15;;
55015;SDS011;40919;43.236;21.590;2023-05-10T13:03:24;15.07;;;8.68;;
55015;SDS011;40919;43.236;21.590;2023-05-10T13:05:50;12.52;;;7.90;;
55015;SDS011;40919;43.236;21.590;2023-05-10T13:08:16;13.48;;;8.95;;
55015;SDS011;40919;43.236;21.590;2023-05-10T13:10:41;14.40;;;9.85;;
55015;SDS011;40919;43.236;21.590;2023-05-10T13:13:07;18.00;;;10.20;;
55015;SDS011;40919;43.236;21.590;2023-05-10T13:15:33;16.98;;;11.05;;
55015;SDS011;40919;43.236;21.590;2023-05-10T13:18:00;14.65;;;9.52;;
55015;SDS011;40919;43.236;21.590;2023-05-10T13:20:26;12.73;;;7.00;;
55015;SDS011;40919;43.236;21.590;2023-05-10T13:22:52;12.48;;;10.25;;
55015;SDS011;40919;43.236;21.590;2023-05-10T13:25:18;9.40;;;7.40;;
55015;SDS011;40919;43.236;21.590;2023-05-10T13:27:45;13.40;;;8.20;;
55015;SDS011;40919;43.236;21.590;2023-05-10T13:30:11;12.07;;;8.55;;
55015;SDS011;40919;43.236;21.590;2023-05-10T13:32:37;15.18;;;8.48;;
55015;SDS011;40919;43.236;21.590;2023-05-10T13:35:03;11.27;;;7.97;;
55015;SDS011;40919;43.236;21.590;2023-05-10T13:37:30;13.30;;;7.97;;
55015;SDS011;40919;43.236;21.590;2023-05-10T13:39:57;10.48;;;6.85;;
55015;SDS011;40919;43.236;21.590;2023-05-10T13:42:23;8.77;;;5.30;;
55015;SDS011;40919;43.236;21.590;2023-05-10T13:44:49;12.18;;;7.63;;
55015;SDS011;40919;43.236;21.590;2023-05-10T13:47:15;10.07;;;8.00;;
55015;SDS011;40919;43.236;21.590;2023-05-10T13:49:41;13.25;;;6.93;;
55015;SDS011;40919;43.236;21.590;2023-05-10T13:52:07;11.95;;;8.77;;
55015;SDS011;40919;43.236;21.590;2023-05-10T13:54:35;10.73;;;8.80;;
55015;SDS011;40919;43.236;21.590;2023-05-10T13:57:02;9.05;;;7.15;;
55015;SDS011;40919;43.236;21.590;2023-05-10T13:59:28;9.23;;;6.95;;
55015;SDS011;40919;43.236;21.590;2023-05-10T14:01:56;9.52;;;7.53;;
55015;SDS011;40919;43.236;21.590;2023-05-10T14:04:23;17.52;;;10.02;;
55015;SDS011;40919;43.236;21.590;2023-05-10T14:06:49;19.67;;;16.52;;
55015;SDS011;40919;43.236;21.590;2023-05-10T14:09:15;22.67;;;16.85;;
55015;SDS011;40919;43.236;21.590;2023-05-10T14:11:41;11.82;;;8.93;;
55015;SDS011;40919;43.236;21.590;2023-05-10T14:14:10;9.50;;;7.40;;
55015;SDS011;40919;43.236;21.590;2023-05-10T14:16:37;11.15;;;8.73;;
55015;SDS011;40919;43.236;21.590;2023-05-10T14:19:03;16.30;;;14.35;;
55015;SDS011;40919;43.236;21.590;2023-05-10T14:21:29;19.80;;;14.68;;
55015;SDS011;40919;43.236;21.590;2023-05-10T14:23:55;20.45;;;14.88;;
55015;SDS011;40919;43.236;21.590;2023-05-10T14:26:22;17.55;;;14.18;;
55015;SDS011;40919;43.236;21.590;2023-05-10T14:28:48;15.98;;;12.70;;
55015;SDS011;40919;43.236;21.590;2023-05-10T14:31:13;11.50;;;9.95;;
55015;SDS011;40919;43.236;21.590;2023-05-10T14:33:41;13.50;;;11.00;;
55015;SDS011;40919;43.236;21.590;2023-05-10T14:36:08;18.80;;;14.68;;
55015;SDS011;40919;43.236;21.590;2023-05-10T14:38:34;16.80;;;12.40;;
55015;SDS011;40919;43.236;21.590;2023-05-10T14:41:00;15.70;;;10.55;;
55015;SDS011;40919;43.236;21.590;2023-05-10T14:43:26;13.60;;;10.45;;
55015;SDS011;40919;43.236;21.590;2023-05-10T14:45:52;14.15;;;9.75;;
55015;SDS011;40919;43.236;21.590;2023-05-10T14:48:18;14.40;;;9.90;;
55015;SDS011;40919;43.236;21.590;2023-05-10T14:50:46;17.02;;;10.60;;
55015;SDS011;40919;43.236;21.590;2023-05-10T14:53:11;13.88;;;10.50;;
55015;SDS011;40919;43.236;21.590;2023-05-10T14:55:37;15.98;;;11.98;;
55015;SDS011;40919;43.236;21.590;2023-05-10T14:58:04;12.43;;;11.18;;
55015;SDS011;40919;43.236;21.590;2023-05-10T15:00:29;17.25;;;10.50;;
55015;SDS011;40919;43.236;21.590;2023-05-10T15:02:56;13.25;;;10.38;;
55015;SDS011;40919;43.236;21.590;2023-05-10T15:05:22;11.75;;;9.38;;
55015;SDS011;40919;43.236;21.590;2023-05-10T15:07:48;15.27;;;12.10;;
55015;SDS011;40919;43.236;21.590;2023-05-10T15:10:14;17.65;;;12.80;;
55015;SDS011;40919;43.236;21.590;2023-05-10T15:12:40;19.15;;;11.98;;
55015;SDS011;40919;43.236;21.590;2023-05-10T15:15:06;16.13;;;12.02;;